createdAt,value
2022-12-27T00:02:12.853Z,11.80
2022-12-27T00:06:19.684Z,11.78
2022-12-27T00:10:22.451Z,11.82
2022-12-27T00:14:24.605Z,11.90
2022-12-27T00:18:26.731Z,11.93
2022-12-27T00:22:28.847Z,12.01
2022-12-27T00:26:33.448Z,11.80
2022-12-27T00:30:35.570Z,11.61
2022-12-27T00:34:38.258Z,11.60
2022-12-27T00:38:40.679Z,11.55
2022-12-27T00:42:42.837Z,11.58
2022-12-27T00:46:44.948Z,11.61
2022-12-27T00:50:47.599Z,11.60
2022-12-27T00:54:49.661Z,11.68
2022-12-27T00:59:01.077Z,11.77
2022-12-27T01:03:04.057Z,11.82
2022-12-27T01:07:06.208Z,11.95
2022-12-27T01:11:10.109Z,12.04
2022-12-27T01:15:12.981Z,12.03
2022-12-27T01:19:15.095Z,11.97
2022-12-27T01:23:17.154Z,11.92
2022-12-27T01:27:19.315Z,11.91
2022-12-27T01:31:24.937Z,12.01
2022-12-27T01:35:27.114Z,12.06
2022-12-27T01:39:29.237Z,11.99
2022-12-27T01:43:38.853Z,12.05
2022-12-27T01:48:03.752Z,12.23
2022-12-27T01:52:07.737Z,12.31
2022-12-27T01:56:13.902Z,12.36
2022-12-27T02:00:16.762Z,12.40
2022-12-27T02:04:23.229Z,12.40
2022-12-27T02:08:46.754Z,12.46
2022-12-27T02:12:48.857Z,12.49
2022-12-27T02:16:52.765Z,12.50
2022-12-27T02:21:07.336Z,12.53
2022-12-27T02:25:25.999Z,12.50
2022-12-27T02:29:53.066Z,12.45
2022-12-27T02:33:58.517Z,12.38
2022-12-27T02:38:07.643Z,12.32
2022-12-27T02:42:29.849Z,12.35
2022-12-27T02:46:52.032Z,12.10
2022-12-27T02:51:18.828Z,12.11
2022-12-27T02:55:34.333Z,12.22
2022-12-27T03:00:16.485Z,12.28
2022-12-27T03:04:18.818Z,12.13
2022-12-27T03:08:35.586Z,12.14
2022-12-27T03:13:02.301Z,12.11
2022-12-27T03:17:27.051Z,12.09
2022-12-27T03:21:59.597Z,11.77
2022-12-27T03:26:05.796Z,11.25
2022-12-27T03:30:28.415Z,11.24
2022-12-27T03:34:47.527Z,11.19
2022-12-27T03:39:05.700Z,11.11
2022-12-27T03:43:16.777Z,11.02
2022-12-27T03:47:43.051Z,11.09
2022-12-27T03:51:51.759Z,10.97
2022-12-27T03:55:54.069Z,10.88
2022-12-27T03:59:56.322Z,10.81
2022-12-27T04:04:00.466Z,10.92
2022-12-27T04:08:21.879Z,10.74
2022-12-27T04:12:42.516Z,10.60
2022-12-27T04:17:03.124Z,10.55
2022-12-27T04:21:23.961Z,10.48
2022-12-27T04:25:44.537Z,10.57
2022-12-27T04:30:06.313Z,10.75
2022-12-27T04:34:27.435Z,10.76
2022-12-27T04:38:29.609Z,10.80
2022-12-27T04:42:50.577Z,10.90
2022-12-27T04:47:12.804Z,10.90
2022-12-27T04:51:34.231Z,10.83
2022-12-27T04:55:36.595Z,10.54
2022-12-27T04:59:57.395Z,10.28
2022-12-27T05:04:00.182Z,10.41
2022-12-27T05:08:22.055Z,10.48
2022-12-27T05:12:42.648Z,10.26
2022-12-27T05:16:44.839Z,10.20
2022-12-27T05:20:46.911Z,10.16
2022-12-27T05:25:07.688Z,10.06
2022-12-27T05:29:10.100Z,9.90
2022-12-27T05:33:12.501Z,9.80
2022-12-27T05:37:14.637Z,9.75
2022-12-27T05:41:17.056Z,9.70
2022-12-27T05:45:20.116Z,9.61
2022-12-27T05:49:23.410Z,9.69
2022-12-27T05:53:25.459Z,9.76
2022-12-27T05:57:27.900Z,9.82
2022-12-27T06:01:30.580Z,9.92
2022-12-27T06:05:32.770Z,9.91
2022-12-27T06:09:35.088Z,9.97
2022-12-27T06:13:38.714Z,10.04
2022-12-27T06:17:41.290Z,10.08
2022-12-27T06:21:43.626Z,10.20
2022-12-27T06:25:45.793Z,9.98
2022-12-27T06:29:48.290Z,9.93
2022-12-27T06:33:51.686Z,10.01
2022-12-27T06:37:54.061Z,9.94
2022-12-27T06:41:56.373Z,9.99
2022-12-27T06:46:00.396Z,10.12
2022-12-27T06:50:03.612Z,10.12
2022-12-27T06:54:06.011Z,10.16
2022-12-27T06:58:08.198Z,10.07
2022-12-27T07:02:11.565Z,10.10
2022-12-27T07:06:13.889Z,10.16
2022-12-27T07:10:16.312Z,10.06
2022-12-27T07:14:21.684Z,10.07
2022-12-27T07:18:23.998Z,10.06
2022-12-27T07:22:27.999Z,10.12
2022-12-27T07:26:30.998Z,10.23
2022-12-27T07:30:33.175Z,10.25
2022-12-27T07:34:35.389Z,10.02
2022-12-27T07:38:37.655Z,10.04
2022-12-27T07:42:39.839Z,9.91
2022-12-27T07:46:42.245Z,9.98
2022-12-27T07:50:44.385Z,10.02
2022-12-27T07:54:46.988Z,10.11
2022-12-27T07:58:50.763Z,10.16
2022-12-27T08:02:53.015Z,10.20
2022-12-27T08:07:00.660Z,10.39
2022-12-27T08:11:05.893Z,10.38
2022-12-27T08:15:11.437Z,10.41
2022-12-27T08:19:13.765Z,10.50
2022-12-27T08:23:16.151Z,10.58
2022-12-27T08:27:23.618Z,10.78
2022-12-27T08:31:25.866Z,11.02
2022-12-27T08:35:55.318Z,10.80
2022-12-27T08:39:51.897Z,10.82
2022-12-27T08:43:54.154Z,10.78
2022-12-27T08:47:59.953Z,10.66
2022-12-27T08:52:02.202Z,10.81
2022-12-27T08:56:04.706Z,10.76
2022-12-27T09:00:08.626Z,10.80
2022-12-27T09:04:10.752Z,11.07
2022-12-27T09:08:13.186Z,10.89
2022-12-27T09:12:15.634Z,10.89
2022-12-27T09:16:24.292Z,10.89
2022-12-27T09:20:26.683Z,11.19
2022-12-27T09:24:32.581Z,11.28
2022-12-27T09:28:48.225Z,11.24
2022-12-27T09:32:50.569Z,11.38
2022-12-27T09:36:52.894Z,11.37
2022-12-27T09:40:57.942Z,11.64
2022-12-27T09:45:18.052Z,11.91
2022-12-27T09:49:33.824Z,11.97
2022-12-27T09:53:46.352Z,11.90
2022-12-27T09:57:50.900Z,12.13
2022-12-27T10:01:56.182Z,12.50
2022-12-27T10:06:18.467Z,12.85
2022-12-27T10:11:15.630Z,12.84
2022-12-27T10:15:29.273Z,12.97
2022-12-27T10:19:56.002Z,13.30
2022-12-27T10:24:14.778Z,13.53
2022-12-27T10:28:30.810Z,13.97
2022-12-27T10:32:35.369Z,13.90
2022-12-27T10:36:41.795Z,13.93
2022-12-27T10:41:25.776Z,14.13
2022-12-27T10:45:42.874Z,14.57
2022-12-27T10:50:10.038Z,14.89
2022-12-27T10:54:18.686Z,15.20
2022-12-27T10:58:56.486Z,15.39
2022-12-27T11:03:08.573Z,15.50
2022-12-27T11:07:18.865Z,15.45
2022-12-27T11:11:27.965Z,15.61
2022-12-27T11:15:48.351Z,15.72
2022-12-27T11:20:03.658Z,15.69
2022-12-27T11:24:19.007Z,15.56
2022-12-27T11:28:39.217Z,15.57
2022-12-27T11:32:49.858Z,15.58
2022-12-27T11:37:09.245Z,15.62
2022-12-27T11:41:50.391Z,15.62
2022-12-27T11:46:02.797Z,15.67
2022-12-27T11:50:45.632Z,15.62
2022-12-27T11:55:34.034Z,15.33
2022-12-27T11:59:57.938Z,14.83
2022-12-27T12:04:29.880Z,14.79
2022-12-27T12:08:47.680Z,14.59
2022-12-27T12:13:03.827Z,14.59
2022-12-27T12:17:50.641Z,14.33
2022-12-27T12:22:41.977Z,14.54
2022-12-27T12:27:09.146Z,14.90
2022-12-27T12:31:45.587Z,15.00
2022-12-27T12:36:07.340Z,14.73
2022-12-27T12:40:41.272Z,14.49
2022-12-27T12:45:25.052Z,14.32
2022-12-27T12:49:55.889Z,14.43
2022-12-27T12:54:42.611Z,14.50
2022-12-27T12:59:39.385Z,14.55
2022-12-27T13:04:10.176Z,14.81
2022-12-27T13:08:52.601Z,15.05
2022-12-27T13:13:15.711Z,15.44
2022-12-27T13:17:33.194Z,15.58
2022-12-27T13:22:25.991Z,15.51
2022-12-27T13:27:23.647Z,15.99
2022-12-27T13:32:05.330Z,16.10
2022-12-27T13:36:33.717Z,16.28
2022-12-27T13:41:28.078Z,16.31
2022-12-27T13:45:56.569Z,16.45
2022-12-27T13:50:47.886Z,16.46
2022-12-27T13:55:25.739Z,16.35
2022-12-27T14:00:01.894Z,16.11
2022-12-27T14:04:59.510Z,15.87
2022-12-27T14:09:51.716Z,15.99
2022-12-27T14:14:03.587Z,16.01
2022-12-27T14:18:59.663Z,15.91
2022-12-27T14:23:35.088Z,15.82
2022-12-27T14:28:11.487Z,15.82
2022-12-27T14:32:33.159Z,15.84
2022-12-27T14:37:19.384Z,15.79
2022-12-27T14:41:44.413Z,15.83
2022-12-27T14:46:19.684Z,15.69
2022-12-27T14:50:45.404Z,15.57
2022-12-27T14:55:16.246Z,15.58
2022-12-27T14:59:49.944Z,15.50
2022-12-27T15:04:08.124Z,15.49
2022-12-27T15:08:30.874Z,15.31
2022-12-27T15:12:56.986Z,15.27
2022-12-27T15:17:11.497Z,15.23
2022-12-27T15:21:30.978Z,15.14
2022-12-27T15:25:56.373Z,15.04
2022-12-27T15:30:08.077Z,14.95
2022-12-27T15:34:41.131Z,14.85
2022-12-27T15:38:54.931Z,14.78
2022-12-27T15:43:20.853Z,14.74
2022-12-27T15:48:20.848Z,14.59
2022-12-27T15:52:34.720Z,14.48
2022-12-27T15:57:20.912Z,14.34
2022-12-27T16:01:29.766Z,14.18
2022-12-27T16:05:47.695Z,14.13
2022-12-27T16:09:50.427Z,14.02
2022-12-27T16:14:23.352Z,13.85
2022-12-27T16:18:46.001Z,13.95
2022-12-27T16:22:53.684Z,13.77
2022-12-27T16:27:05.665Z,13.59
2022-12-27T16:31:12.644Z,13.51
2022-12-27T16:35:16.500Z,13.29
2022-12-27T16:39:24.851Z,12.81
2022-12-27T16:43:46.949Z,12.84
2022-12-27T16:48:34.084Z,12.88
2022-12-27T16:53:02.124Z,12.64
2022-12-27T16:57:29.195Z,12.75
2022-12-27T17:01:35.671Z,12.80
2022-12-27T17:05:44.825Z,12.83
2022-12-27T17:09:55.869Z,12.80
2022-12-27T17:14:03.624Z,12.86
2022-12-27T17:18:33.069Z,12.67
2022-12-27T17:22:39.550Z,12.54
2022-12-27T17:27:03.613Z,12.42
2022-12-27T17:31:30.735Z,12.32
2022-12-27T17:35:48.022Z,12.41
2022-12-27T17:40:05.536Z,12.39
2022-12-27T17:44:39.631Z,12.24
2022-12-27T17:48:42.704Z,12.08
2022-12-27T17:53:31.634Z,11.92
2022-12-27T17:57:52.329Z,11.60
2022-12-27T18:02:13.469Z,11.28
2022-12-27T18:06:19.933Z,11.34
2022-12-27T18:10:25.914Z,11.38
2022-12-27T18:14:31.520Z,11.28
2022-12-27T18:23:27.950Z,11.03
2022-12-27T18:27:32.971Z,10.92
2022-12-27T18:31:49.901Z,10.95
2022-12-27T18:35:52.467Z,10.99
2022-12-27T18:40:00.361Z,11.01
2022-12-27T18:44:02.966Z,10.87
2022-12-27T18:48:12.199Z,10.89
2022-12-27T18:52:22.387Z,10.90
2022-12-27T18:56:33.100Z,11.09
2022-12-27T19:00:59.168Z,11.15
2022-12-27T19:05:13.761Z,11.13
2022-12-27T19:09:18.390Z,10.91
2022-12-27T19:13:28.259Z,10.94
2022-12-27T19:17:32.420Z,10.99
2022-12-27T19:21:37.354Z,10.86
2022-12-27T19:25:41.172Z,10.80
2022-12-27T19:29:51.692Z,10.71
2022-12-27T19:34:16.323Z,10.37
2022-12-27T19:38:24.427Z,10.39
2022-12-27T19:42:33.787Z,10.45
2022-12-27T19:46:36.546Z,10.52
2022-12-27T19:50:47.994Z,10.62
2022-12-27T19:54:57.162Z,10.63
2022-12-27T19:59:00.339Z,10.61
2022-12-27T20:03:05.356Z,10.62
2022-12-27T20:07:14.002Z,10.68
2022-12-27T20:11:25.594Z,10.80
2022-12-27T20:15:31.444Z,10.58
2022-12-27T20:19:33.737Z,10.64
2022-12-27T20:23:37.853Z,10.69
2022-12-27T20:27:40.913Z,10.81
2022-12-27T20:31:49.287Z,10.92
2022-12-27T20:35:57.708Z,11.01
2022-12-27T20:40:05.001Z,11.08
2022-12-27T20:44:07.610Z,11.08
2022-12-27T20:48:11.364Z,11.07
2022-12-27T20:52:15.498Z,10.99
2022-12-27T20:56:23.555Z,11.04
2022-12-27T21:00:28.229Z,11.06
2022-12-27T21:04:30.573Z,11.16
2022-12-27T21:08:36.148Z,11.22
2022-12-27T21:12:44.371Z,11.10
2022-12-27T21:16:46.711Z,11.01
2022-12-27T21:20:48.865Z,10.98
2022-12-27T21:24:51.179Z,10.95
2022-12-27T21:28:54.490Z,10.97
2022-12-27T21:32:56.972Z,11.02
2022-12-27T21:37:01.448Z,10.97
2022-12-27T21:41:08.242Z,10.91
2022-12-27T21:45:13.835Z,10.97
2022-12-27T21:49:16.677Z,10.88
2022-12-27T21:53:20.167Z,10.59
2022-12-27T21:57:22.861Z,10.51
2022-12-27T22:01:31.084Z,10.67
2022-12-27T22:05:56.154Z,10.82
2022-12-27T22:09:58.952Z,10.87
2022-12-27T22:14:02.765Z,10.85
2022-12-27T22:18:06.695Z,10.85
2022-12-27T22:22:10.281Z,10.81
2022-12-27T22:26:17.822Z,10.74
2022-12-27T22:30:21.779Z,10.71
2022-12-27T22:34:24.094Z,10.55
2022-12-27T22:38:27.027Z,10.38
2022-12-27T22:42:29.333Z,10.01
2022-12-27T22:46:58.595Z,9.95
2022-12-27T22:51:00.667Z,10.06
2022-12-27T22:55:06.795Z,9.99
2022-12-27T22:59:14.884Z,9.94
2022-12-27T23:03:17.478Z,9.80
2022-12-27T23:08:04.720Z,9.82
2022-12-27T23:11:44.204Z,9.82
2022-12-27T23:15:47.423Z,9.85
2022-12-27T23:19:50.020Z,9.85
2022-12-27T23:23:53.283Z,9.86
2022-12-27T23:27:55.662Z,9.72
2022-12-27T23:31:57.882Z,9.53
2022-12-27T23:36:00.354Z,9.69
2022-12-27T23:40:03.307Z,9.73
2022-12-27T23:44:05.567Z,9.84
2022-12-27T23:48:07.725Z,9.97
2022-12-27T23:52:10.039Z,9.96
2022-12-27T23:56:19.389Z,10.01
